Terminal Aerodrome Forecast
Issued by NWS Wilmington, OH

Current Version | Previous Version | Graphics & Text | Print | Product List | Glossary On
Versions: 1 2 3 4 5 6 7 8 9 10 11 12 13 14 15 16 17 18 19 20 21 22 23 24
000
FTUS41 KILN 250800 AAA
TAFCVG
TAF AMD
KCVG 250855Z 2509/2612 19006KT P6SM SCT120 BKN150
     FM251500 15006KT P6SM VCSH BKN050 OVC100
     FM251900 12006KT 5SM -RA BR SCT015 OVC035
     FM260000 05008KT 2SM -RA OVC008
     FM260300 01011G21KT 1SM -SN BKN008 OVC015
      TEMPO 2604/2606 1/2SM SN
     FM260600 36015G22KT 2SM -SN SCT015 OVC025
     FM260900 36014G21KT 4SM -SN SCT015 OVC025=

USA.gov is the U.S. government's official web portal to all federal, state and local government web resources and services.